createdAt,value
2022-11-15T00:01:42.273Z,6.9
2022-11-15T00:06:42.205Z,7
2022-11-15T00:16:42.154Z,6.9
2022-11-15T00:21:42.164Z,6.9
2022-11-15T00:31:42.180Z,6.9
2022-11-15T00:41:42.146Z,6.8
2022-11-15T00:46:42.147Z,6.8
2022-11-15T00:56:42.177Z,6.8
2022-11-15T01:01:42.149Z,6.8
2022-11-15T01:11:42.163Z,6.8
2022-11-15T01:21:42.187Z,6.8
2022-11-15T01:31:42.161Z,6.7
2022-11-15T01:41:42.183Z,6.8
2022-11-15T01:46:42.164Z,6.8
2022-11-15T01:56:42.157Z,6.7
2022-11-15T02:01:42.181Z,6.8
2022-11-15T02:06:42.171Z,6.7
2022-11-15T02:11:42.165Z,6.8
2022-11-15T02:21:42.189Z,6.6
2022-11-15T02:31:42.157Z,6.6
2022-11-15T02:36:42.171Z,6.6
2022-11-15T02:46:42.184Z,6.6
2022-11-15T02:51:42.163Z,6.6
2022-11-15T03:01:42.174Z,6.5
2022-11-15T03:11:42.183Z,6.5
2022-11-15T03:16:42.188Z,6.4
2022-11-15T03:26:42.167Z,6.5
2022-11-15T03:31:47.021Z,6.5
2022-11-15T03:41:42.170Z,6.6
2022-11-15T03:51:42.206Z,6.4
2022-11-15T04:01:42.229Z,6.4
2022-11-15T04:11:42.193Z,6.4
2022-11-15T04:21:42.168Z,6.5
2022-11-15T04:26:42.168Z,6.5
2022-11-15T04:36:42.195Z,6.4
2022-11-15T04:41:42.180Z,6.4
2022-11-15T04:46:42.188Z,6.3
2022-11-15T04:56:42.200Z,6.4
2022-11-15T05:01:45.095Z,6.3
2022-11-15T05:06:42.180Z,6.4
2022-11-15T05:11:42.195Z,6.4
2022-11-15T05:21:42.194Z,6.5
2022-11-15T05:26:42.181Z,6.3
2022-11-15T05:36:42.183Z,6.3
2022-11-15T05:41:42.300Z,6.3
2022-11-15T05:51:42.188Z,6.4
2022-11-15T06:01:42.282Z,6.4
2022-11-15T06:06:42.187Z,6.4
2022-11-15T06:16:42.179Z,6.3
2022-11-15T06:26:42.295Z,6.4
2022-11-15T06:31:42.191Z,6.3
2022-11-15T06:41:42.180Z,6.4
2022-11-15T06:51:42.210Z,6.5
2022-11-15T07:01:42.281Z,6.3
2022-11-15T07:06:42.185Z,6.4
2022-11-15T07:16:42.204Z,6.4
2022-11-15T07:26:42.198Z,6.4
2022-11-15T07:36:42.217Z,6.4
2022-11-15T07:46:42.175Z,6.3
2022-11-15T07:51:42.178Z,6.3
2022-11-15T07:56:42.202Z,6.3
2022-11-15T08:06:42.189Z,6.4
2022-11-15T08:11:42.200Z,6.4
2022-11-15T08:16:42.209Z,6.4
2022-11-15T08:26:42.185Z,6.4
2022-11-15T08:31:42.178Z,6.4
2022-11-15T08:41:42.208Z,6.3
2022-11-15T08:51:42.192Z,6.4
2022-11-15T09:01:42.239Z,6.4
2022-11-15T09:06:43.434Z,6.4
2022-11-15T09:16:42.184Z,6.3
2022-11-15T09:21:42.210Z,6.4
2022-11-15T09:26:42.201Z,6.4
2022-11-15T09:36:42.197Z,6.5
2022-11-15T09:46:42.216Z,6.5
2022-11-15T09:51:42.200Z,6.6
2022-11-15T09:56:42.200Z,6.6
2022-11-15T10:06:42.214Z,6.6
2022-11-15T10:16:42.207Z,6.7
2022-11-15T10:21:42.205Z,6.7
2022-11-15T10:26:42.224Z,6.8
2022-11-15T10:31:42.210Z,6.8
2022-11-15T10:41:42.223Z,6.8
2022-11-15T10:51:42.216Z,6.8
2022-11-15T10:56:42.211Z,6.8
2022-11-15T11:06:42.208Z,7.1
2022-11-15T11:16:42.229Z,7
2022-11-15T11:21:42.212Z,7
2022-11-15T11:31:42.196Z,7
2022-11-15T11:36:42.218Z,7
2022-11-15T11:41:42.208Z,7
2022-11-15T11:51:42.196Z,6.9
2022-11-15T11:56:42.226Z,6.9
2022-11-15T12:01:42.474Z,6.9
2022-11-15T12:06:42.213Z,6.8
2022-11-15T12:16:42.227Z,6.9
2022-11-15T12:26:42.196Z,6.9
2022-11-15T12:36:42.214Z,6.9
2022-11-15T12:41:42.222Z,6.9
2022-11-15T12:51:42.207Z,6.9
2022-11-15T13:01:42.314Z,6.9
2022-11-15T13:06:42.213Z,6.9
2022-11-15T13:16:42.204Z,6.8
2022-11-15T13:26:42.224Z,6.8
2022-11-15T13:31:42.208Z,6.8
2022-11-15T13:41:42.244Z,6.8
2022-11-15T13:51:42.242Z,6.8
2022-11-15T13:56:42.218Z,6.7
2022-11-15T14:06:42.213Z,6.7
2022-11-15T14:11:42.251Z,6.7
2022-11-15T14:16:42.227Z,6.7
2022-11-15T14:26:42.219Z,6.8
2022-11-15T14:31:43.943Z,6.7
2022-11-15T14:41:42.224Z,6.7
2022-11-15T14:51:42.289Z,6.7
2022-11-15T15:01:42.232Z,6.7
2022-11-15T15:11:42.248Z,6.6
2022-11-15T15:16:42.234Z,6.7
2022-11-15T15:21:42.245Z,6.7
2022-11-15T15:31:42.263Z,6.7
2022-11-15T15:41:42.222Z,6.7
2022-11-15T15:46:42.237Z,6.6
2022-11-15T15:56:42.255Z,6.5
2022-11-15T16:01:42.315Z,6.6
2022-11-15T16:06:42.250Z,6.6
2022-11-15T16:16:42.268Z,6.7
2022-11-15T16:26:42.246Z,6.7
2022-11-15T16:36:42.302Z,6.6
2022-11-15T16:46:42.254Z,6.6
2022-11-15T16:56:42.268Z,6.6
2022-11-15T17:06:42.272Z,6.6
2022-11-15T17:16:42.280Z,6.6
2022-11-15T17:21:42.256Z,6.5
2022-11-15T17:31:42.261Z,6.5
2022-11-15T17:36:42.325Z,6.5
2022-11-15T17:46:42.282Z,6.4
2022-11-15T17:56:42.301Z,6.4
2022-11-15T18:01:42.382Z,6.4
2022-11-15T18:06:42.294Z,6.4
2022-11-15T18:16:42.305Z,6.3
2022-11-15T18:21:42.286Z,6.3
2022-11-15T18:31:46.475Z,6.3
2022-11-15T18:36:42.333Z,6.3
2022-11-15T18:46:42.280Z,6.3
2022-11-15T18:51:42.291Z,6.3
2022-11-15T19:01:42.310Z,6.2
2022-11-15T19:11:42.271Z,6.2
2022-11-15T19:16:42.281Z,6.2
2022-11-15T19:21:42.309Z,6.2
2022-11-15T19:26:42.280Z,6.3
2022-11-15T19:36:42.272Z,6.3
2022-11-15T19:46:42.368Z,6.2
2022-11-15T19:56:42.280Z,6.1
2022-11-15T20:06:42.337Z,6.1
2022-11-15T20:11:42.311Z,6.1
2022-11-15T20:21:42.299Z,6.2
2022-11-15T20:31:42.310Z,6
2022-11-15T20:36:42.289Z,6.1
2022-11-15T20:46:42.285Z,6.1
2022-11-15T20:56:42.320Z,6.2
2022-11-15T21:01:42.433Z,6.2
2022-11-15T21:11:42.298Z,6.2
2022-11-15T21:16:42.326Z,6.2
2022-11-15T21:26:42.303Z,6
2022-11-15T21:36:42.335Z,6.1
2022-11-15T21:46:42.305Z,6.1
2022-11-15T21:51:42.314Z,6.1
2022-11-15T22:01:42.587Z,6.1
2022-11-15T22:11:42.307Z,6
2022-11-15T22:16:42.316Z,6
2022-11-15T22:26:42.338Z,6.1
2022-11-15T22:31:42.330Z,6.1
2022-11-15T22:41:42.315Z,6.1
2022-11-15T22:51:42.346Z,6.1
2022-11-15T23:01:42.309Z,6
2022-11-15T23:06:42.314Z,6
2022-11-15T23:11:42.344Z,5.9
2022-11-15T23:21:42.324Z,6
2022-11-15T23:26:42.309Z,6
2022-11-15T23:36:42.493Z,6
2022-11-15T23:46:42.324Z,5.9
2022-11-15T23:51:42.328Z,5.9
